Historique des stations

Station météo de Prémilhat

Altitude de la station : 321 m







Données météorologiques pour le 18/05/2021
Date
Heure
Températures Humidité Point de rosée Vitesse
du vent
Direction Rafales Windchill Pression Pluviométrie
Cumul
Date
Heure
Températures Humidité Point de rosée Vitesse
du vent
Direction Rafales Windchill Pression Pluviométrie
Cumul
18/05/2021 13:0113.9 °C62 %6.7 °C6 km/hN13 km/h13.9 1016 hPa-
18/05/2021 12:4613.9 °C64 %7.2 °C3 km/hN10 km/h13.9 1016 hPa-
18/05/2021 12:3113.7 °C69 %7.8 °C10 km/hOSO10 km/h13.3 1016 hPa-
18/05/2021 12:1612.8 °C72 %7.8 °C2 km/hSO5 km/h12.8 1016 hPa-
18/05/2021 12:0112.7 °C71 %7.8 °C-O13 km/h12.8 1016 hPa-
18/05/2021 11:4512.5 °C73 %7.8 °C3 km/hO16 km/h12.8 1016 hPa-
18/05/2021 11:3012.4 °C74 %7.8 °C10 km/hNNO10 km/h11.1 1017 hPa-
18/05/2021 11:1512.1 °C74 %7.8 °C6 km/hO13 km/h12.2 1017 hPa-
18/05/2021 11:0011.9 °C73 %7.2 °C3 km/hONO13 km/h11.7 1017 hPa-
18/05/2021 10:4511.8 °C75 %7.8 °C3 km/hOSO13 km/h11.7 1017 hPa-
18/05/2021 10:3011.7 °C76 %7.8 °C5 km/hO14 km/h11.7 1017 hPa-
18/05/2021 10:1511.7 °C80 %8.3 °C14 km/hOSO16 km/h9.4 1017 hPa-
18/05/2021 10:0010.8 °C82 %7.8 °C2 km/hONO14 km/h11.1 1017 hPa-
18/05/2021 09:4510.5 °C84 %7.8 °C10 km/hO16 km/h9.4 1018 hPa-
18/05/2021 09:3010.2 °C85 %7.8 °C16 km/hOSO18 km/h7.2 1018 hPa-
18/05/2021 09:159.7 °C87 %7.8 °C13 km/hOSO14 km/h7.2 1018 hPa-
18/05/2021 09:009.3 °C88 %7.2 °C---9.4 1017 hPa-
18/05/2021 08:459.0 °C89 %7.2 °C---8.9 1017 hPa-
18/05/2021 08:308.8 °C90 %7.2 °C---8.9 1018 hPa-
18/05/2021 08:158.6 °C90 %7.2 °C---8.9 1017 hPa-
18/05/2021 08:008.5 °C90 %7.2 °C---8.3 1018 hPa-
18/05/2021 07:458.3 °C90 %6.7 °C---8.3 1018 hPa-
18/05/2021 07:308.1 °C91 %6.7 °C---8.3 1018 hPa-
18/05/2021 07:157.8 °C91 %6.7 °C---7.8 1018 hPa-
18/05/2021 07:007.6 °C92 %6.7 °C---7.8 1018 hPa-
18/05/2021 06:457.4 °C91 %6.1 °C---7.2 1018 hPa-
18/05/2021 06:317.3 °C91 %6.1 °C-O2 km/h7.2 1017 hPa-
18/05/2021 06:157.2 °C91 %6.1 °C---7.2 1017 hPa-
18/05/2021 06:007.1 °C91 %5.6 °C---7.2 1017 hPa-
18/05/2021 05:457.0 °C91 %5.6 °C---7.2 1017 hPa-
18/05/2021 05:307.1 °C90 %5.6 °C---7.2 1017 hPa-
18/05/2021 05:157.1 °C89 %5.6 °C---7.2 1017 hPa-
18/05/2021 05:007.4 °C89 %5.6 °C---7.2 1017 hPa-
18/05/2021 04:457.6 °C89 %6.1 °C---7.8 1017 hPa-
18/05/2021 04:307.6 °C89 %6.1 °C---7.8 1017 hPa-
18/05/2021 04:167.7 °C88 %6.1 °C---7.8 1017 hPa-
18/05/2021 04:017.9 °C87 %6.1 °C---7.8 1017 hPa-
18/05/2021 03:468.0 °C88 %6.1 °C11 km/hONO14 km/h5.6 1017 hPa-
18/05/2021 03:317.9 °C88 %6.1 °C13 km/hO18 km/h5.0 1018 hPa-
18/05/2021 03:167.9 °C87 %6.1 °C10 km/hO16 km/h6.1 1018 hPa-
18/05/2021 03:018.1 °C86 %6.1 °C6 km/hO16 km/h7.2 1018 hPa-
18/05/2021 02:468.4 °C85 %6.1 °C10 km/hO19 km/h6.7 1018 hPa-
18/05/2021 02:318.6 °C85 %6.1 °C14 km/hO24 km/h5.6 1018 hPa-
18/05/2021 02:168.6 °C86 %6.1 °C21 km/hONO21 km/h4.4 1017 hPa-
18/05/2021 02:018.6 °C85 %6.1 °C11 km/hO18 km/h6.7 1018 hPa-
18/05/2021 01:458.9 °C84 %6.1 °C5 km/hO18 km/h8.3 1018 hPa-
18/05/2021 01:309.1 °C83 %6.1 °C8 km/hONO19 km/h7.8 1018 hPa-
18/05/2021 01:159.2 °C83 %6.7 °C10 km/hONO21 km/h7.8 1018 hPa-
18/05/2021 01:009.4 °C81 %6.1 °C16 km/hONO18 km/h6.7 1018 hPa-
18/05/2021 00:459.7 °C81 %6.7 °C6 km/hO21 km/h8.3 1018 hPa-
18/05/2021 00:309.7 °C80 %6.7 °C10 km/hONO19 km/h7.8 1018 hPa-
18/05/2021 00:159.9 °C79 %6.7 °C8 km/hONO18 km/h8.9 1018 hPa-
18/05/2021 00:0010.1 °C78 %6.7 °C13 km/hONO29 km/h7.8 1018 hPa-


Minima :

Température : 7.0 °C
Humidité : 62 %
Point de rosée : 5.6 °C
Vent moyen : 2 km/h
Windchill : 4.4
Pression atm. : 1016 hPa
Maxima :

Température : 13.9 °C
Humidité : 92 %
Point de rosée : 8.3 °C
Vent moyen : 21 km/h
Windchill : 13.9
Pression atm. : 1018 hPa
Rafales max : 29 km/h
Cumul de pluie sur 24H : 0 mm

Prémilhat est une commune du département Allier (03).
La station météorologique du réseau de l'association la plus proche de Prémilhat est celle de Lignerolles



Icône Facebook Association Météo Centre Icône Twitter Association Météo Centre Icône Chaîne Youtube Association Météo Centre Icône contact Association Météo Centre Icône Insta Association Météo Centre